createdAt,value
2023-05-08T00:00:12.796Z,101071.88
2023-05-08T00:05:11.784Z,101075.22
2023-05-08T00:10:11.466Z,101066.28
2023-05-08T00:15:12.818Z,101072.09
2023-05-08T00:20:12.863Z,101063.09
2023-05-08T00:25:11.752Z,101067.31
2023-05-08T00:30:13.276Z,101062.56
2023-05-08T00:35:12.785Z,101065.22
2023-05-08T00:40:12.824Z,101056.25
2023-05-08T00:45:13.368Z,101065.06
2023-05-08T00:50:13.084Z,101074.53
2023-05-08T00:55:12.117Z,101059.66
2023-05-08T01:00:13.460Z,101057.44
2023-05-08T01:05:13.155Z,101056.16
2023-05-08T01:10:12.437Z,101042.34
2023-05-08T01:15:16.988Z,101030.72
2023-05-08T01:20:27.373Z,101046.44
2023-05-08T01:25:54.442Z,101049.84
2023-05-08T01:31:13.539Z,101040.97
2023-05-08T01:36:21.879Z,101026.09
2023-05-08T01:41:28.794Z,101024.63
2023-05-08T01:46:29.572Z,101012.91
2023-05-08T01:51:33.472Z,101009.50
2023-05-08T01:56:32.961Z,101018.41
2023-05-08T02:01:35.340Z,101023.88
2023-05-08T02:06:37.294Z,101019.41
2023-05-08T02:11:37.970Z,101025.88
2023-05-08T02:16:38.854Z,101049.22
2023-05-08T02:21:41.803Z,101062.97
2023-05-08T02:26:42.622Z,101063.72
2023-05-08T02:31:42.818Z,101067.41
2023-05-08T02:36:44.381Z,101075.78
2023-05-08T02:41:44.451Z,101073.28
2023-05-08T02:46:50.582Z,101087.94
2023-05-08T02:51:57.080Z,101081.38
2023-05-08T02:57:01.802Z,101089.00
2023-05-08T03:02:08.083Z,101080.84
2023-05-08T03:07:09.413Z,101086.50
2023-05-08T03:12:14.356Z,101087.91
2023-05-08T03:17:17.461Z,101100.72
2023-05-08T03:22:20.434Z,101108.88
2023-05-08T03:27:20.519Z,101111.84
2023-05-08T03:32:21.309Z,101094.44
2023-05-08T03:37:22.585Z,101115.28
2023-05-08T03:42:22.394Z,101117.28
2023-05-08T03:47:22.556Z,101134.44
2023-05-08T03:52:23.386Z,101125.91
2023-05-08T03:57:22.801Z,101131.13
2023-05-08T04:02:29.965Z,101127.84
2023-05-08T04:07:38.021Z,101141.34
2023-05-08T04:12:46.451Z,101143.13
2023-05-08T04:17:51.398Z,101147.78
2023-05-08T04:22:54.944Z,101140.59
2023-05-08T04:27:57.707Z,101150.56
2023-05-08T04:32:58.089Z,101145.91
2023-05-08T04:38:00.210Z,101151.50
2023-05-08T04:42:59.396Z,101151.91
2023-05-08T04:47:59.051Z,101136.16
2023-05-08T04:52:59.299Z,101142.00
2023-05-08T04:57:58.258Z,101144.97
2023-05-08T05:02:57.293Z,101129.56
2023-05-08T05:07:56.203Z,101143.50
2023-05-08T05:12:56.428Z,101138.19
2023-05-08T05:17:58.253Z,101138.00
2023-05-08T05:22:57.805Z,101132.44
2023-05-08T05:27:58.907Z,101117.25
2023-05-08T05:32:58.485Z,101120.81
2023-05-08T05:37:57.399Z,101119.09
2023-05-08T05:42:56.350Z,101126.66
2023-05-08T05:47:56.399Z,101119.19
2023-05-08T05:52:57.850Z,101123.81
2023-05-08T05:57:57.885Z,101122.25
2023-05-08T06:02:59.077Z,101118.59
2023-05-08T06:07:58.268Z,101118.97
2023-05-08T06:12:57.179Z,101105.38
2023-05-08T06:17:56.561Z,101104.97
2023-05-08T06:22:56.730Z,101104.19
2023-05-08T06:27:55.380Z,101094.69
2023-05-08T06:32:54.218Z,101105.50
2023-05-08T06:37:53.046Z,101103.56
2023-05-08T06:42:53.109Z,101096.06
2023-05-08T06:47:51.814Z,101084.22
2023-05-08T06:52:50.478Z,101084.28
2023-05-08T06:57:49.168Z,101088.19
2023-05-08T07:02:49.297Z,101089.69
2023-05-08T07:07:48.024Z,101097.19
2023-05-08T07:12:46.837Z,101090.53
2023-05-08T07:17:45.850Z,101096.22
2023-05-08T07:22:46.554Z,101101.19
2023-05-08T07:27:45.240Z,101103.00
2023-05-08T07:32:44.054Z,101103.88
2023-05-08T07:37:42.889Z,101107.53
2023-05-08T07:42:44.369Z,101108.84
2023-05-08T07:47:50.939Z,101100.66
2023-05-08T07:52:50.590Z,101103.09
2023-05-08T07:57:50.806Z,101106.66
2023-05-08T08:02:51.449Z,101100.63
2023-05-08T08:07:50.546Z,101103.50
2023-05-08T08:12:50.695Z,101098.44
2023-05-08T08:17:49.611Z,101102.63
2023-05-08T08:22:48.542Z,101100.97
2023-05-08T08:27:49.801Z,101111.78
2023-05-08T08:32:50.207Z,101110.34
2023-05-08T08:37:48.954Z,101119.50
2023-05-08T08:42:47.773Z,101114.13
2023-05-08T08:47:47.051Z,101120.06
2023-05-08T08:52:56.947Z,101117.53
2023-05-08T08:58:04.478Z,101126.63
2023-05-08T09:03:03.616Z,101126.63
2023-05-08T09:08:05.803Z,101118.69
2023-05-08T09:13:05.003Z,101124.97
2023-05-08T09:18:04.001Z,101132.91
2023-05-08T09:23:04.295Z,101133.03
2023-05-08T09:28:16.791Z,101131.16
2023-05-08T09:33:15.658Z,101139.59
2023-05-08T09:43:37.170Z,101148.34
2023-05-08T09:48:38.951Z,101151.31
2023-05-08T09:53:38.004Z,101147.50
2023-05-08T09:58:41.745Z,101138.38
2023-05-08T10:03:50.361Z,101135.25
2023-05-08T10:08:49.711Z,101135.06
2023-05-08T10:13:49.758Z,101146.91
2023-05-08T10:18:50.516Z,101162.69
2023-05-08T10:23:52.299Z,101164.63
2023-05-08T10:28:57.536Z,101172.75
2023-05-08T10:33:57.403Z,101179.75
2023-05-08T10:38:58.715Z,101179.63
2023-05-08T10:44:02.560Z,101177.13
2023-05-08T10:49:14.134Z,101184.63
2023-05-08T10:54:21.822Z,101181.72
2023-05-08T10:59:23.014Z,101207.44
2023-05-08T11:04:22.664Z,101184.66
2023-05-08T11:09:23.244Z,101185.03
2023-05-08T11:14:25.419Z,101201.88
2023-05-08T11:19:26.257Z,101214.84
2023-05-08T11:24:36.030Z,101221.03
2023-05-08T11:29:36.319Z,101229.63
2023-05-08T11:34:48.972Z,101222.72
2023-05-08T11:39:47.935Z,101220.53
2023-05-08T11:44:48.098Z,101223.75
2023-05-08T11:49:46.892Z,101226.72
2023-05-08T11:54:45.683Z,101244.25
2023-05-08T11:59:44.965Z,101250.94
2023-05-08T12:04:48.460Z,101255.00
2023-05-08T12:09:48.061Z,101257.75
2023-05-08T12:14:51.010Z,101268.69
2023-05-08T12:19:56.584Z,101246.50
2023-05-08T12:24:55.326Z,101254.59
2023-05-08T12:29:54.175Z,101254.53
2023-05-08T12:34:54.470Z,101251.09
2023-05-08T12:39:53.136Z,101241.09
2023-05-08T12:44:52.648Z,101244.53
2023-05-08T12:49:52.778Z,101254.91
2023-05-08T12:54:52.912Z,101254.94
2023-05-08T12:59:51.778Z,101257.84
2023-05-08T13:04:56.069Z,101252.59
2023-05-08T13:10:00.260Z,101256.88
2023-05-08T13:14:59.185Z,101247.97
2023-05-08T13:19:57.931Z,101250.72
2023-05-08T13:24:56.686Z,101249.69
2023-05-08T13:29:56.830Z,101256.28
2023-05-08T13:34:58.799Z,101251.38
2023-05-08T13:39:59.620Z,101246.28
2023-05-08T13:44:59.858Z,101246.59
2023-05-08T13:49:58.666Z,101234.66
2023-05-08T13:54:58.137Z,101229.38
2023-05-08T13:59:56.943Z,101228.81
2023-05-08T14:04:57.696Z,101230.97
2023-05-08T14:09:56.547Z,101233.66
2023-05-08T14:14:55.271Z,101242.06
2023-05-08T14:19:59.866Z,101241.44
2023-05-08T14:24:58.650Z,101252.81
2023-05-08T14:29:57.970Z,101252.06
2023-05-08T14:34:58.297Z,101263.47
2023-05-08T14:39:58.721Z,101269.53
2023-05-08T14:44:57.545Z,101265.91
2023-05-08T14:49:56.368Z,101279.88
2023-05-08T14:54:56.682Z,101297.13
2023-05-08T14:59:56.918Z,101305.84
2023-05-08T15:04:55.799Z,101303.09
2023-05-08T15:09:54.517Z,101295.66
2023-05-08T15:14:54.753Z,101300.56
2023-05-08T15:19:53.558Z,101296.31
2023-05-08T15:24:52.415Z,101302.03
2023-05-08T15:29:51.819Z,101310.03
2023-05-08T15:34:52.000Z,101311.63
2023-05-08T15:39:50.945Z,101306.69
2023-05-08T15:44:54.632Z,101309.72
2023-05-08T15:49:55.515Z,101312.06
2023-05-08T15:54:54.262Z,101311.97
2023-05-08T15:59:52.970Z,101311.09
2023-05-08T16:04:51.803Z,101319.56
2023-05-08T16:09:52.007Z,101339.44
2023-05-08T16:14:50.716Z,101346.84
2023-05-08T16:19:49.486Z,101345.63
2023-05-08T16:24:48.165Z,101333.53
2023-05-08T16:29:48.421Z,101338.09
2023-05-08T16:34:47.092Z,101352.75
2023-05-08T16:39:45.823Z,101350.59
2023-05-08T16:44:44.464Z,101364.00
2023-05-08T16:49:45.085Z,101362.34
2023-05-08T16:54:43.995Z,101377.00
2023-05-08T16:59:42.673Z,101370.44
2023-05-08T17:04:41.836Z,101368.66
2023-05-08T17:09:42.328Z,101371.22
2023-05-08T17:14:42.720Z,101372.25
2023-05-08T17:19:43.170Z,101369.97
2023-05-08T17:24:43.461Z,101376.66
2023-05-08T17:29:42.198Z,101388.66
2023-05-08T17:34:41.057Z,101399.97
2023-05-08T17:39:39.858Z,101415.22
2023-05-08T17:44:40.027Z,101423.63
2023-05-08T17:49:38.975Z,101436.28
2023-05-08T17:54:37.806Z,101443.31
2023-05-08T17:59:36.540Z,101441.91
2023-05-08T18:04:36.646Z,101451.69
2023-05-08T18:09:35.461Z,101445.47
2023-05-08T18:14:34.851Z,101454.03
2023-05-08T18:19:34.120Z,101470.56
2023-05-08T18:24:34.200Z,101463.41
2023-05-08T18:29:32.967Z,101480.84
2023-05-08T18:34:33.001Z,101488.28
2023-05-08T18:39:33.127Z,101493.31
2023-05-08T18:44:31.993Z,101511.44
2023-05-08T18:49:30.837Z,101501.19
2023-05-08T18:54:30.078Z,101494.09
2023-05-08T18:59:30.276Z,101504.00
2023-05-08T19:04:29.051Z,101514.22
2023-05-08T19:09:27.840Z,101524.25
2023-05-08T19:14:26.622Z,101524.44
2023-05-08T19:19:27.684Z,101529.72
2023-05-08T19:24:29.885Z,101538.00
2023-05-08T19:29:28.770Z,101537.72
2023-05-08T19:34:29.136Z,101550.72
2023-05-08T19:39:28.230Z,101550.63
2023-05-08T19:44:28.160Z,101559.28
2023-05-08T19:49:28.815Z,101556.69
2023-05-08T19:54:27.596Z,101562.50
2023-05-08T19:59:26.503Z,101558.25
2023-05-08T20:04:25.427Z,101558.41
2023-05-08T20:09:25.670Z,101547.13
2023-05-08T20:14:24.518Z,101555.00
2023-05-08T20:19:23.360Z,101557.03
2023-05-08T20:24:23.392Z,101563.00
2023-05-08T20:29:24.331Z,101553.56
2023-05-08T20:34:23.121Z,101549.28
2023-05-08T20:39:21.922Z,101559.53
2023-05-08T20:44:20.610Z,101558.25
2023-05-08T20:49:20.764Z,101578.19
2023-05-08T20:54:19.443Z,101566.34
2023-05-08T20:59:18.870Z,101574.91
2023-05-08T21:04:20.474Z,101583.59
2023-05-08T21:09:19.641Z,101595.75
2023-05-08T21:14:18.405Z,101585.66
2023-05-08T21:19:17.766Z,101580.81
2023-05-08T21:24:17.919Z,101599.53
2023-05-08T21:29:16.767Z,101585.63
2023-05-08T21:34:16.512Z,101596.09
2023-05-08T21:39:15.235Z,101600.97
2023-05-08T21:44:16.084Z,101593.97
2023-05-08T21:49:15.494Z,101597.34
2023-05-08T21:54:14.338Z,101590.34
2023-05-08T21:59:13.095Z,101591.28
2023-05-08T22:04:13.154Z,101584.69
2023-05-08T22:09:11.838Z,101590.25
2023-05-08T22:14:10.560Z,101586.81
2023-05-08T22:19:11.475Z,101584.03
2023-05-08T22:24:11.589Z,101598.00
2023-05-08T22:29:10.284Z,101604.78
2023-05-08T22:34:09.231Z,101602.00
2023-05-08T22:39:10.153Z,101597.94
2023-05-08T22:44:10.529Z,101596.41
2023-05-08T22:49:10.349Z,101596.63
2023-05-08T22:54:09.039Z,101594.78
2023-05-08T22:59:07.970Z,101598.91
2023-05-08T23:04:08.166Z,101597.41
2023-05-08T23:09:06.936Z,101598.47
2023-05-08T23:14:05.755Z,101599.19
2023-05-08T23:19:04.682Z,101605.88
2023-05-08T23:24:06.081Z,101604.97
2023-05-08T23:29:04.793Z,101599.03
2023-05-08T23:34:03.612Z,101603.91
2023-05-08T23:39:02.297Z,101593.19
2023-05-08T23:44:02.472Z,101609.34
2023-05-08T23:49:01.173Z,101595.44
2023-05-08T23:53:59.947Z,101601.97
2023-05-08T23:58:58.765Z,101603.53
